sensor_id;sensor_type;location;lat;lon;timestamp;temperature;humidity
62555;DHT22;48610;52.144;8.624;2023-01-20T00:01:09;2.30;99.90
62555;DHT22;48610;52.144;8.624;2023-01-20T00:04:11;2.30;99.90
62555;DHT22;48610;52.144;8.624;2023-01-20T00:07:11;2.30;99.90
62555;DHT22;48610;52.144;8.624;2023-01-20T00:10:12;2.30;99.90
62555;DHT22;48610;52.144;8.624;2023-01-20T00:13:13;2.20;99.90
62555;DHT22;48610;52.144;8.624;2023-01-20T00:16:13;2.20;99.90
62555;DHT22;48610;52.144;8.624;2023-01-20T00:19:14;2.10;99.90
62555;DHT22;48610;52.144;8.624;2023-01-20T00:22:15;2.20;99.90
62555;DHT22;48610;52.144;8.624;2023-01-20T00:25:15;2.10;99.90
62555;DHT22;48610;52.144;8.624;2023-01-20T00:28:16;2.10;99.90
62555;DHT22;48610;52.144;8.624;2023-01-20T00:31:25;2.20;99.90
62555;DHT22;48610;52.144;8.624;2023-01-20T00:34:26;2.20;99.90
62555;DHT22;48610;52.144;8.624;2023-01-20T00:37:27;2.10;99.90
62555;DHT22;48610;52.144;8.624;2023-01-20T00:40:27;2.10;99.90
62555;DHT22;48610;52.144;8.624;2023-01-20T00:43:28;2.20;99.90
62555;DHT22;48610;52.144;8.624;2023-01-20T00:46:28;1.90;99.90
62555;DHT22;48610;52.144;8.624;2023-01-20T00:49:29;2.10;99.90
62555;DHT22;48610;52.144;8.624;2023-01-20T00:52:29;2.10;99.90
62555;DHT22;48610;52.144;8.624;2023-01-20T00:55:30;2.10;99.90
62555;DHT22;48610;52.144;8.624;2023-01-20T00:58:31;1.90;99.90
62555;DHT22;48610;52.144;8.624;2023-01-20T01:01:31;2.00;99.90
62555;DHT22;48610;52.144;8.624;2023-01-20T01:04:32;2.10;99.90
62555;DHT22;48610;52.144;8.624;2023-01-20T01:07:32;2.10;99.90
62555;DHT22;48610;52.144;8.624;2023-01-20T01:10:33;2.00;99.90
62555;DHT22;48610;52.144;8.624;2023-01-20T01:13:34;2.10;99.90
62555;DHT22;48610;52.144;8.624;2023-01-20T01:16:35;2.20;99.90
62555;DHT22;48610;52.144;8.624;2023-01-20T01:19:36;2.10;99.90
62555;DHT22;48610;52.144;8.624;2023-01-20T01:22:36;2.20;99.90
62555;DHT22;48610;52.144;8.624;2023-01-20T01:25:37;2.30;99.90
62555;DHT22;48610;52.144;8.624;2023-01-20T01:28:38;2.40;99.90
62555;DHT22;48610;52.144;8.624;2023-01-20T01:31:39;2.50;99.90
62555;DHT22;48610;52.144;8.624;2023-01-20T01:34:39;2.50;99.90
62555;DHT22;48610;52.144;8.624;2023-01-20T01:37:40;2.50;99.90
62555;DHT22;48610;52.144;8.624;2023-01-20T01:40:47;2.30;99.90
62555;DHT22;48610;52.144;8.624;2023-01-20T01:44:06;2.40;99.90
62555;DHT22;48610;52.144;8.624;2023-01-20T01:47:06;2.20;99.90
62555;DHT22;48610;52.144;8.624;2023-01-20T01:50:09;2.00;99.90
62555;DHT22;48610;52.144;8.624;2023-01-20T01:53:14;2.20;99.90
62555;DHT22;48610;52.144;8.624;2023-01-20T01:56:15;2.20;99.90
62555;DHT22;48610;52.144;8.624;2023-01-20T01:59:16;2.20;99.90
62555;DHT22;48610;52.144;8.624;2023-01-20T02:02:18;2.30;99.90
62555;DHT22;48610;52.144;8.624;2023-01-20T02:05:19;2.30;99.90
62555;DHT22;48610;52.144;8.624;2023-01-20T02:08:21;2.40;99.90
62555;DHT22;48610;52.144;8.624;2023-01-20T02:11:22;2.40;99.90
62555;DHT22;48610;52.144;8.624;2023-01-20T02:14:28;2.30;99.90
62555;DHT22;48610;52.144;8.624;2023-01-20T02:17:34;2.30;99.90
62555;DHT22;48610;52.144;8.624;2023-01-20T02:21:07;2.40;99.90
62555;DHT22;48610;52.144;8.624;2023-01-20T02:31:18;2.60;99.90
62555;DHT22;48610;52.144;8.624;2023-01-20T02:34:32;2.50;99.90
62555;DHT22;48610;52.144;8.624;2023-01-20T02:37:46;2.40;99.90
62555;DHT22;48610;52.144;8.624;2023-01-20T02:44:11;2.40;99.90
62555;DHT22;48610;52.144;8.624;2023-01-20T02:50:34;2.30;99.90
62555;DHT22;48610;52.144;8.624;2023-01-20T02:53:46;2.20;99.90
62555;DHT22;48610;52.144;8.624;2023-01-20T02:56:48;2.10;99.90
62555;DHT22;48610;52.144;8.624;2023-01-20T02:59:53;2.20;99.90
62555;DHT22;48610;52.144;8.624;2023-01-20T03:02:56;2.30;99.90
62555;DHT22;48610;52.144;8.624;2023-01-20T03:06:02;2.40;99.90
62555;DHT22;48610;52.144;8.624;2023-01-20T03:09:07;2.50;99.90
62555;DHT22;48610;52.144;8.624;2023-01-20T03:12:39;2.50;99.90
62555;DHT22;48610;52.144;8.624;2023-01-20T03:16:01;2.40;99.90
62555;DHT22;48610;52.144;8.624;2023-01-20T03:19:02;2.50;99.90
62555;DHT22;48610;52.144;8.624;2023-01-20T03:22:03;2.60;99.90
62555;DHT22;48610;52.144;8.624;2023-01-20T03:25:04;2.60;99.90
62555;DHT22;48610;52.144;8.624;2023-01-20T03:28:06;2.50;99.90
62555;DHT22;48610;52.144;8.624;2023-01-20T03:31:33;2.50;99.90
62555;DHT22;48610;52.144;8.624;2023-01-20T03:34:37;2.30;99.90
62555;DHT22;48610;52.144;8.624;2023-01-20T03:37:38;2.40;99.90
62555;DHT22;48610;52.144;8.624;2023-01-20T03:40:46;2.40;99.90
62555;DHT22;48610;52.144;8.624;2023-01-20T03:50:38;2.70;99.90
62555;DHT22;48610;52.144;8.624;2023-01-20T03:59:54;2.40;99.90
62555;DHT22;48610;52.144;8.624;2023-01-20T04:02:57;2.40;99.90
62555;DHT22;48610;52.144;8.624;2023-01-20T04:05:59;2.40;99.90
62555;DHT22;48610;52.144;8.624;2023-01-20T04:09:10;2.50;99.90
62555;DHT22;48610;52.144;8.624;2023-01-20T04:12:13;2.50;99.90
62555;DHT22;48610;52.144;8.624;2023-01-20T04:15:14;2.30;99.90
62555;DHT22;48610;52.144;8.624;2023-01-20T04:18:17;2.20;99.90
62555;DHT22;48610;52.144;8.624;2023-01-20T04:21:23;2.10;99.90
62555;DHT22;48610;52.144;8.624;2023-01-20T04:24:34;2.30;99.90
62555;DHT22;48610;52.144;8.624;2023-01-20T04:27:35;1.90;99.90
62555;DHT22;48610;52.144;8.624;2023-01-20T04:30:36;2.00;99.90
62555;DHT22;48610;52.144;8.624;2023-01-20T04:33:37;1.90;99.90
62555;DHT22;48610;52.144;8.624;2023-01-20T04:36:38;1.80;99.90
62555;DHT22;48610;52.144;8.624;2023-01-20T04:39:38;1.70;99.90
62555;DHT22;48610;52.144;8.624;2023-01-20T04:42:39;1.80;99.90
62555;DHT22;48610;52.144;8.624;2023-01-20T04:45:40;1.80;99.90
62555;DHT22;48610;52.144;8.624;2023-01-20T04:48:42;1.70;99.90
62555;DHT22;48610;52.144;8.624;2023-01-20T04:51:43;1.80;99.90
62555;DHT22;48610;52.144;8.624;2023-01-20T04:54:44;1.70;99.90
62555;DHT22;48610;52.144;8.624;2023-01-20T04:57:46;1.80;99.90
62555;DHT22;48610;52.144;8.624;2023-01-20T05:00:47;1.90;99.90
62555;DHT22;48610;52.144;8.624;2023-01-20T05:03:47;2.00;99.90
62555;DHT22;48610;52.144;8.624;2023-01-20T05:06:48;2.20;99.90
62555;DHT22;48610;52.144;8.624;2023-01-20T05:09:48;2.30;99.90
62555;DHT22;48610;52.144;8.624;2023-01-20T05:12:49;2.30;99.90
62555;DHT22;48610;52.144;8.624;2023-01-20T05:15:49;2.20;99.90
62555;DHT22;48610;52.144;8.624;2023-01-20T05:18:50;2.10;99.90
62555;DHT22;48610;52.144;8.624;2023-01-20T05:21:50;2.10;99.90
62555;DHT22;48610;52.144;8.624;2023-01-20T05:24:51;2.00;99.90
62555;DHT22;48610;52.144;8.624;2023-01-20T05:27:52;2.00;99.90
62555;DHT22;48610;52.144;8.624;2023-01-20T05:30:52;2.00;99.90
62555;DHT22;48610;52.144;8.624;2023-01-20T05:33:53;1.90;99.90
62555;DHT22;48610;52.144;8.624;2023-01-20T05:36:53;1.70;99.90
62555;DHT22;48610;52.144;8.624;2023-01-20T05:39:54;1.80;99.90
62555;DHT22;48610;52.144;8.624;2023-01-20T05:42:58;1.90;99.90
62555;DHT22;48610;52.144;8.624;2023-01-20T05:45:59;2.10;99.90
62555;DHT22;48610;52.144;8.624;2023-01-20T05:48:59;2.20;99.90
62555;DHT22;48610;52.144;8.624;2023-01-20T05:52:02;2.00;99.90
62555;DHT22;48610;52.144;8.624;2023-01-20T05:55:03;1.90;99.90
62555;DHT22;48610;52.144;8.624;2023-01-20T05:58:05;1.90;99.90
62555;DHT22;48610;52.144;8.624;2023-01-20T06:01:07;1.80;99.90
62555;DHT22;48610;52.144;8.624;2023-01-20T06:04:07;2.00;99.90
62555;DHT22;48610;52.144;8.624;2023-01-20T06:07:08;2.10;99.90
62555;DHT22;48610;52.144;8.624;2023-01-20T06:10:09;2.20;99.90
62555;DHT22;48610;52.144;8.624;2023-01-20T06:13:10;2.30;99.90
62555;DHT22;48610;52.144;8.624;2023-01-20T06:16:10;2.20;99.90
62555;DHT22;48610;52.144;8.624;2023-01-20T06:19:11;2.30;99.90
62555;DHT22;48610;52.144;8.624;2023-01-20T06:22:13;2.40;99.90
62555;DHT22;48610;52.144;8.624;2023-01-20T06:25:18;2.50;99.90
62555;DHT22;48610;52.144;8.624;2023-01-20T06:28:19;2.40;99.90
62555;DHT22;48610;52.144;8.624;2023-01-20T06:31:19;2.40;99.90
62555;DHT22;48610;52.144;8.624;2023-01-20T06:34:20;2.50;99.90
62555;DHT22;48610;52.144;8.624;2023-01-20T06:37:21;2.40;99.90
62555;DHT22;48610;52.144;8.624;2023-01-20T06:40:21;2.40;99.90
62555;DHT22;48610;52.144;8.624;2023-01-20T06:43:22;2.50;99.90
62555;DHT22;48610;52.144;8.624;2023-01-20T06:46:23;2.50;99.90
62555;DHT22;48610;52.144;8.624;2023-01-20T06:49:23;2.40;99.90
62555;DHT22;48610;52.144;8.624;2023-01-20T06:52:24;2.50;99.90
62555;DHT22;48610;52.144;8.624;2023-01-20T06:55:24;2.60;99.90
62555;DHT22;48610;52.144;8.624;2023-01-20T06:58:28;2.60;99.90
62555;DHT22;48610;52.144;8.624;2023-01-20T07:01:29;2.60;99.90
62555;DHT22;48610;52.144;8.624;2023-01-20T07:04:30;2.50;99.90
62555;DHT22;48610;52.144;8.624;2023-01-20T07:07:30;2.50;99.90
62555;DHT22;48610;52.144;8.624;2023-01-20T07:10:31;2.30;99.90
62555;DHT22;48610;52.144;8.624;2023-01-20T07:13:32;2.50;99.90
62555;DHT22;48610;52.144;8.624;2023-01-20T07:16:33;2.30;99.90
62555;DHT22;48610;52.144;8.624;2023-01-20T07:19:34;2.30;99.90
62555;DHT22;48610;52.144;8.624;2023-01-20T07:22:35;2.40;99.90
62555;DHT22;48610;52.144;8.624;2023-01-20T07:25:36;2.50;99.90
62555;DHT22;48610;52.144;8.624;2023-01-20T07:28:38;2.30;99.90
62555;DHT22;48610;52.144;8.624;2023-01-20T07:31:38;2.40;99.90
62555;DHT22;48610;52.144;8.624;2023-01-20T07:34:39;2.60;99.90
62555;DHT22;48610;52.144;8.624;2023-01-20T07:37:40;2.60;99.90
62555;DHT22;48610;52.144;8.624;2023-01-20T07:40:40;2.60;99.90
62555;DHT22;48610;52.144;8.624;2023-01-20T07:43:42;2.50;99.90
62555;DHT22;48610;52.144;8.624;2023-01-20T07:46:43;2.50;99.90
62555;DHT22;48610;52.144;8.624;2023-01-20T07:49:43;2.20;99.90
62555;DHT22;48610;52.144;8.624;2023-01-20T07:52:44;2.30;99.90
62555;DHT22;48610;52.144;8.624;2023-01-20T07:55:44;2.50;99.90
62555;DHT22;48610;52.144;8.624;2023-01-20T07:58:45;2.50;99.90
62555;DHT22;48610;52.144;8.624;2023-01-20T08:01:46;2.50;99.90
62555;DHT22;48610;52.144;8.624;2023-01-20T08:04:47;2.50;99.90
62555;DHT22;48610;52.144;8.624;2023-01-20T08:07:51;2.60;99.90
62555;DHT22;48610;52.144;8.624;2023-01-20T08:10:52;2.50;99.90
62555;DHT22;48610;52.144;8.624;2023-01-20T08:13:53;2.60;99.90
62555;DHT22;48610;52.144;8.624;2023-01-20T08:16:54;2.60;99.90
62555;DHT22;48610;52.144;8.624;2023-01-20T08:19:54;2.60;99.90
62555;DHT22;48610;52.144;8.624;2023-01-20T08:22:55;2.60;99.90
62555;DHT22;48610;52.144;8.624;2023-01-20T08:26:00;2.50;99.90
62555;DHT22;48610;52.144;8.624;2023-01-20T08:29:06;2.60;99.90
62555;DHT22;48610;52.144;8.624;2023-01-20T08:32:07;2.50;99.90
62555;DHT22;48610;52.144;8.624;2023-01-20T08:35:08;2.50;99.90
62555;DHT22;48610;52.144;8.624;2023-01-20T08:38:08;2.50;99.90
62555;DHT22;48610;52.144;8.624;2023-01-20T08:41:12;2.40;99.90
62555;DHT22;48610;52.144;8.624;2023-01-20T08:44:13;2.50;99.90
62555;DHT22;48610;52.144;8.624;2023-01-20T08:47:14;2.60;99.90
62555;DHT22;48610;52.144;8.624;2023-01-20T08:50:15;2.70;99.90
62555;DHT22;48610;52.144;8.624;2023-01-20T08:53:15;2.70;99.90
62555;DHT22;48610;52.144;8.624;2023-01-20T08:56:17;2.90;99.90
62555;DHT22;48610;52.144;8.624;2023-01-20T08:59:19;2.90;99.90
62555;DHT22;48610;52.144;8.624;2023-01-20T09:02:19;3.10;99.90
62555;DHT22;48610;52.144;8.624;2023-01-20T09:05:22;3.00;99.90
62555;DHT22;48610;52.144;8.624;2023-01-20T09:08:22;3.10;99.90
62555;DHT22;48610;52.144;8.624;2023-01-20T09:11:26;2.90;99.90
62555;DHT22;48610;52.144;8.624;2023-01-20T09:14:26;2.90;99.90
62555;DHT22;48610;52.144;8.624;2023-01-20T09:17:27;2.80;99.90
62555;DHT22;48610;52.144;8.624;2023-01-20T09:20:27;2.90;99.90
62555;DHT22;48610;52.144;8.624;2023-01-20T09:23:29;3.00;99.90
62555;DHT22;48610;52.144;8.624;2023-01-20T09:26:30;3.00;99.90
62555;DHT22;48610;52.144;8.624;2023-01-20T09:29:37;2.90;99.90
62555;DHT22;48610;52.144;8.624;2023-01-20T09:32:38;2.80;99.90
62555;DHT22;48610;52.144;8.624;2023-01-20T09:35:39;2.90;99.90
62555;DHT22;48610;52.144;8.624;2023-01-20T09:38:39;2.80;99.90
62555;DHT22;48610;52.144;8.624;2023-01-20T09:42:48;2.90;99.90
62555;DHT22;48610;52.144;8.624;2023-01-20T09:46:21;3.00;99.90
62555;DHT22;48610;52.144;8.624;2023-01-20T09:49:30;3.10;99.90
62555;DHT22;48610;52.144;8.624;2023-01-20T09:53:21;3.20;99.90
62555;DHT22;48610;52.144;8.624;2023-01-20T09:56:23;3.30;99.90
62555;DHT22;48610;52.144;8.624;2023-01-20T09:59:36;3.30;99.90
62555;DHT22;48610;52.144;8.624;2023-01-20T10:02:42;3.10;99.90
62555;DHT22;48610;52.144;8.624;2023-01-20T10:05:47;3.00;99.90
62555;DHT22;48610;52.144;8.624;2023-01-20T10:12:31;3.00;99.90
62555;DHT22;48610;52.144;8.624;2023-01-20T10:15:35;3.10;99.90
62555;DHT22;48610;52.144;8.624;2023-01-20T10:18:42;3.10;99.90
62555;DHT22;48610;52.144;8.624;2023-01-20T10:22:03;3.20;99.90
62555;DHT22;48610;52.144;8.624;2023-01-20T10:25:15;3.40;99.90
62555;DHT22;48610;52.144;8.624;2023-01-20T10:28:31;3.40;99.90
62555;DHT22;48610;52.144;8.624;2023-01-20T10:31:52;3.50;99.90
62555;DHT22;48610;52.144;8.624;2023-01-20T10:34:57;3.40;99.90
62555;DHT22;48610;52.144;8.624;2023-01-20T10:37:59;3.80;99.90
62555;DHT22;48610;52.144;8.624;2023-01-20T10:44:27;5.10;99.90
62555;DHT22;48610;52.144;8.624;2023-01-20T10:47:45;5.50;99.90
62555;DHT22;48610;52.144;8.624;2023-01-20T10:51:17;5.90;99.90
62555;DHT22;48610;52.144;8.624;2023-01-20T10:54:23;6.10;99.90
62555;DHT22;48610;52.144;8.624;2023-01-20T10:57:27;6.50;99.90
62555;DHT22;48610;52.144;8.624;2023-01-20T11:00:29;6.90;99.90
62555;DHT22;48610;52.144;8.624;2023-01-20T11:03:38;6.60;99.90
62555;DHT22;48610;52.144;8.624;2023-01-20T11:06:40;6.20;99.90
62555;DHT22;48610;52.144;8.624;2023-01-20T11:09:40;5.80;99.90
62555;DHT22;48610;52.144;8.624;2023-01-20T11:12:43;5.70;99.90
62555;DHT22;48610;52.144;8.624;2023-01-20T11:15:46;5.30;99.90
62555;DHT22;48610;52.144;8.624;2023-01-20T11:19:13;4.90;99.90
62555;DHT22;48610;52.144;8.624;2023-01-20T11:22:16;4.50;99.90
62555;DHT22;48610;52.144;8.624;2023-01-20T11:25:25;4.20;99.90
62555;DHT22;48610;52.144;8.624;2023-01-20T11:28:26;4.20;99.90
62555;DHT22;48610;52.144;8.624;2023-01-20T11:31:43;4.20;99.90
62555;DHT22;48610;52.144;8.624;2023-01-20T11:34:48;4.10;99.90
62555;DHT22;48610;52.144;8.624;2023-01-20T11:37:50;4.20;99.90
62555;DHT22;48610;52.144;8.624;2023-01-20T11:40:52;4.10;99.90
62555;DHT22;48610;52.144;8.624;2023-01-20T11:43:55;3.90;99.90
62555;DHT22;48610;52.144;8.624;2023-01-20T11:46:56;3.80;99.90
62555;DHT22;48610;52.144;8.624;2023-01-20T11:56:21;3.90;99.90
62555;DHT22;48610;52.144;8.624;2023-01-20T11:59:29;4.00;99.90
62555;DHT22;48610;52.144;8.624;2023-01-20T12:02:30;3.90;99.90
62555;DHT22;48610;52.144;8.624;2023-01-20T12:05:42;4.10;99.90
62555;DHT22;48610;52.144;8.624;2023-01-20T12:12:26;3.80;99.90
62555;DHT22;48610;52.144;8.624;2023-01-20T12:15:31;3.80;99.90
62555;DHT22;48610;52.144;8.624;2023-01-20T12:21:41;4.00;99.90
62555;DHT22;48610;52.144;8.624;2023-01-20T12:25:00;4.10;99.90
62555;DHT22;48610;52.144;8.624;2023-01-20T12:31:16;4.20;99.90
62555;DHT22;48610;52.144;8.624;2023-01-20T12:34:28;4.40;99.90
62555;DHT22;48610;52.144;8.624;2023-01-20T12:37:30;4.30;99.90
62555;DHT22;48610;52.144;8.624;2023-01-20T12:40:46;4.10;99.90
62555;DHT22;48610;52.144;8.624;2023-01-20T12:44:12;4.10;99.90
62555;DHT22;48610;52.144;8.624;2023-01-20T12:47:44;3.90;99.90
62555;DHT22;48610;52.144;8.624;2023-01-20T12:54:25;4.10;99.90
62555;DHT22;48610;52.144;8.624;2023-01-20T13:14:39;4.10;99.90
62555;DHT22;48610;52.144;8.624;2023-01-20T13:21:01;4.00;99.90
62555;DHT22;48610;52.144;8.624;2023-01-20T13:24:03;3.90;99.90
62555;DHT22;48610;52.144;8.624;2023-01-20T13:27:05;4.00;99.90
62555;DHT22;48610;52.144;8.624;2023-01-20T13:30:06;3.90;99.90
62555;DHT22;48610;52.144;8.624;2023-01-20T13:33:14;3.80;99.90
62555;DHT22;48610;52.144;8.624;2023-01-20T13:36:17;3.70;99.90
62555;DHT22;48610;52.144;8.624;2023-01-20T13:39:41;3.80;99.90
62555;DHT22;48610;52.144;8.624;2023-01-20T13:45:42;3.80;99.90
62555;DHT22;48610;52.144;8.624;2023-01-20T13:49:21;3.80;99.90
62555;DHT22;48610;52.144;8.624;2023-01-20T13:59:26;3.80;99.90
62555;DHT22;48610;52.144;8.624;2023-01-20T14:02:30;3.90;99.90
62555;DHT22;48610;52.144;8.624;2023-01-20T14:05:33;3.70;99.90
62555;DHT22;48610;52.144;8.624;2023-01-20T14:08:40;3.50;99.90
62555;DHT22;48610;52.144;8.624;2023-01-20T14:11:51;3.50;99.90
62555;DHT22;48610;52.144;8.624;2023-01-20T14:14:53;3.50;99.90
62555;DHT22;48610;52.144;8.624;2023-01-20T14:17:54;3.30;99.90
62555;DHT22;48610;52.144;8.624;2023-01-20T14:24:00;3.30;99.90
62555;DHT22;48610;52.144;8.624;2023-01-20T14:30:25;3.20;99.90
62555;DHT22;48610;52.144;8.624;2023-01-20T14:33:26;3.20;99.90
62555;DHT22;48610;52.144;8.624;2023-01-20T14:36:30;3.30;99.90
62555;DHT22;48610;52.144;8.624;2023-01-20T14:39:31;3.40;99.90
62555;DHT22;48610;52.144;8.624;2023-01-20T14:42:32;3.60;99.90
62555;DHT22;48610;52.144;8.624;2023-01-20T14:45:35;3.40;99.90
62555;DHT22;48610;52.144;8.624;2023-01-20T14:48:36;3.60;99.90
62555;DHT22;48610;52.144;8.624;2023-01-20T14:51:36;3.50;99.90
62555;DHT22;48610;52.144;8.624;2023-01-20T14:54:42;3.50;99.90
62555;DHT22;48610;52.144;8.624;2023-01-20T14:57:43;3.40;99.90
62555;DHT22;48610;52.144;8.624;2023-01-20T15:00:56;3.50;99.90
62555;DHT22;48610;52.144;8.624;2023-01-20T15:04:00;3.40;99.90
62555;DHT22;48610;52.144;8.624;2023-01-20T15:07:02;3.40;99.90
62555;DHT22;48610;52.144;8.624;2023-01-20T15:10:05;3.30;99.90
62555;DHT22;48610;52.144;8.624;2023-01-20T15:13:27;3.40;99.90
62555;DHT22;48610;52.144;8.624;2023-01-20T15:19:43;3.10;99.90
62555;DHT22;48610;52.144;8.624;2023-01-20T15:22:51;3.20;99.90
62555;DHT22;48610;52.144;8.624;2023-01-20T15:25:52;3.10;99.90
62555;DHT22;48610;52.144;8.624;2023-01-20T15:28:54;3.20;99.90
62555;DHT22;48610;52.144;8.624;2023-01-20T15:31:57;3.40;99.90
62555;DHT22;48610;52.144;8.624;2023-01-20T15:34:58;3.50;99.90
62555;DHT22;48610;52.144;8.624;2023-01-20T15:37:59;3.70;99.90
62555;DHT22;48610;52.144;8.624;2023-01-20T15:41:00;3.60;99.90
62555;DHT22;48610;52.144;8.624;2023-01-20T15:44:00;3.50;99.90
62555;DHT22;48610;52.144;8.624;2023-01-20T15:47:04;3.50;99.90
62555;DHT22;48610;52.144;8.624;2023-01-20T15:50:17;3.50;99.90
62555;DHT22;48610;52.144;8.624;2023-01-20T15:53:18;3.60;99.90
62555;DHT22;48610;52.144;8.624;2023-01-20T15:56:22;3.60;99.90
62555;DHT22;48610;52.144;8.624;2023-01-20T15:59:23;3.50;99.90
62555;DHT22;48610;52.144;8.624;2023-01-20T16:02:25;3.40;99.90
62555;DHT22;48610;52.144;8.624;2023-01-20T16:05:25;3.40;99.90
62555;DHT22;48610;52.144;8.624;2023-01-20T16:08:34;3.40;99.90
62555;DHT22;48610;52.144;8.624;2023-01-20T16:11:36;3.40;99.90
62555;DHT22;48610;52.144;8.624;2023-01-20T16:14:37;3.40;99.90
62555;DHT22;48610;52.144;8.624;2023-01-20T16:17:38;3.30;99.90
62555;DHT22;48610;52.144;8.624;2023-01-20T16:20:38;3.30;99.90
62555;DHT22;48610;52.144;8.624;2023-01-20T16:23:39;3.30;99.90
62555;DHT22;48610;52.144;8.624;2023-01-20T16:26:44;3.10;99.90
62555;DHT22;48610;52.144;8.624;2023-01-20T16:29:45;3.20;99.90
62555;DHT22;48610;52.144;8.624;2023-01-20T16:32:46;3.10;99.90
62555;DHT22;48610;52.144;8.624;2023-01-20T16:35:49;2.90;99.90
62555;DHT22;48610;52.144;8.624;2023-01-20T16:38:50;2.90;99.90
62555;DHT22;48610;52.144;8.624;2023-01-20T16:41:51;2.90;99.90
62555;DHT22;48610;52.144;8.624;2023-01-20T16:44:51;2.90;99.90
62555;DHT22;48610;52.144;8.624;2023-01-20T16:47:52;2.90;99.90
62555;DHT22;48610;52.144;8.624;2023-01-20T16:50:53;2.80;99.90
62555;DHT22;48610;52.144;8.624;2023-01-20T16:53:54;2.40;99.90
62555;DHT22;48610;52.144;8.624;2023-01-20T16:56:55;2.50;99.90
62555;DHT22;48610;52.144;8.624;2023-01-20T16:59:56;2.60;99.90
62555;DHT22;48610;52.144;8.624;2023-01-20T17:02:56;2.70;99.90
62555;DHT22;48610;52.144;8.624;2023-01-20T17:05:57;2.90;99.90
62555;DHT22;48610;52.144;8.624;2023-01-20T17:08:59;2.90;99.90
62555;DHT22;48610;52.144;8.624;2023-01-20T17:12:00;2.90;99.90
62555;DHT22;48610;52.144;8.624;2023-01-20T17:15:01;2.80;99.90
62555;DHT22;48610;52.144;8.624;2023-01-20T17:18:01;2.60;99.90
62555;DHT22;48610;52.144;8.624;2023-01-20T17:21:03;2.50;99.90
62555;DHT22;48610;52.144;8.624;2023-01-20T17:24:05;2.40;99.90
62555;DHT22;48610;52.144;8.624;2023-01-20T17:27:06;2.30;99.90
62555;DHT22;48610;52.144;8.624;2023-01-20T17:30:07;2.50;99.90
62555;DHT22;48610;52.144;8.624;2023-01-20T17:33:08;2.50;99.90
62555;DHT22;48610;52.144;8.624;2023-01-20T17:36:09;2.50;99.90
62555;DHT22;48610;52.144;8.624;2023-01-20T17:39:09;2.70;99.90
62555;DHT22;48610;52.144;8.624;2023-01-20T17:42:10;2.60;99.90
62555;DHT22;48610;52.144;8.624;2023-01-20T17:45:11;2.80;99.90
62555;DHT22;48610;52.144;8.624;2023-01-20T17:48:11;2.60;99.90
62555;DHT22;48610;52.144;8.624;2023-01-20T17:51:14;2.50;99.90
62555;DHT22;48610;52.144;8.624;2023-01-20T17:54:15;2.40;99.90
62555;DHT22;48610;52.144;8.624;2023-01-20T17:57:16;2.40;99.90
62555;DHT22;48610;52.144;8.624;2023-01-20T18:00:17;2.60;99.90
62555;DHT22;48610;52.144;8.624;2023-01-20T18:03:18;2.60;99.90
62555;DHT22;48610;52.144;8.624;2023-01-20T18:06:20;2.40;99.90
62555;DHT22;48610;52.144;8.624;2023-01-20T18:09:21;2.20;99.90
62555;DHT22;48610;52.144;8.624;2023-01-20T18:12:21;2.40;99.90
62555;DHT22;48610;52.144;8.624;2023-01-20T18:15:22;2.30;99.90
62555;DHT22;48610;52.144;8.624;2023-01-20T18:18:23;2.20;99.90
62555;DHT22;48610;52.144;8.624;2023-01-20T18:21:26;2.10;99.90
62555;DHT22;48610;52.144;8.624;2023-01-20T18:24:27;2.00;99.90
62555;DHT22;48610;52.144;8.624;2023-01-20T18:27:28;2.00;99.90
62555;DHT22;48610;52.144;8.624;2023-01-20T18:30:28;2.00;99.90
62555;DHT22;48610;52.144;8.624;2023-01-20T18:33:29;1.90;99.90
62555;DHT22;48610;52.144;8.624;2023-01-20T18:36:39;1.80;99.90
62555;DHT22;48610;52.144;8.624;2023-01-20T18:39:40;1.90;99.90
62555;DHT22;48610;52.144;8.624;2023-01-20T18:42:41;1.80;99.90
62555;DHT22;48610;52.144;8.624;2023-01-20T18:45:44;1.80;99.90
62555;DHT22;48610;52.144;8.624;2023-01-20T18:48:46;1.90;99.90
62555;DHT22;48610;52.144;8.624;2023-01-20T18:51:46;1.80;99.90
62555;DHT22;48610;52.144;8.624;2023-01-20T18:54:47;1.80;99.90
62555;DHT22;48610;52.144;8.624;2023-01-20T18:57:48;1.70;99.90
62555;DHT22;48610;52.144;8.624;2023-01-20T19:00:48;1.60;99.90
62555;DHT22;48610;52.144;8.624;2023-01-20T19:03:49;1.70;99.90
62555;DHT22;48610;52.144;8.624;2023-01-20T19:06:50;1.60;99.90
62555;DHT22;48610;52.144;8.624;2023-01-20T19:09:51;1.70;99.90
62555;DHT22;48610;52.144;8.624;2023-01-20T19:12:51;1.50;99.90
62555;DHT22;48610;52.144;8.624;2023-01-20T19:15:52;1.40;99.90
62555;DHT22;48610;52.144;8.624;2023-01-20T19:18:55;1.30;99.90
62555;DHT22;48610;52.144;8.624;2023-01-20T19:21:56;1.20;99.90
62555;DHT22;48610;52.144;8.624;2023-01-20T19:24:57;1.30;99.90
62555;DHT22;48610;52.144;8.624;2023-01-20T19:27:58;1.50;99.90
62555;DHT22;48610;52.144;8.624;2023-01-20T19:31:16;1.50;99.90
62555;DHT22;48610;52.144;8.624;2023-01-20T19:34:17;1.50;99.90
62555;DHT22;48610;52.144;8.624;2023-01-20T19:37:17;1.60;99.90
62555;DHT22;48610;52.144;8.624;2023-01-20T19:40:18;1.30;99.90
62555;DHT22;48610;52.144;8.624;2023-01-20T19:43:18;1.50;99.90
62555;DHT22;48610;52.144;8.624;2023-01-20T19:46:19;1.60;99.90
62555;DHT22;48610;52.144;8.624;2023-01-20T19:49:23;1.20;99.90
62555;DHT22;48610;52.144;8.624;2023-01-20T19:52:24;1.20;99.90
62555;DHT22;48610;52.144;8.624;2023-01-20T19:55:24;1.40;99.90
62555;DHT22;48610;52.144;8.624;2023-01-20T19:58:25;1.40;99.90
62555;DHT22;48610;52.144;8.624;2023-01-20T20:01:28;1.10;99.90
62555;DHT22;48610;52.144;8.624;2023-01-20T20:04:29;1.20;99.90
62555;DHT22;48610;52.144;8.624;2023-01-20T20:07:29;1.30;99.90
62555;DHT22;48610;52.144;8.624;2023-01-20T20:10:30;1.10;99.90
62555;DHT22;48610;52.144;8.624;2023-01-20T20:13:30;1.10;99.90
62555;DHT22;48610;52.144;8.624;2023-01-20T20:16:33;1.00;99.90
62555;DHT22;48610;52.144;8.624;2023-01-20T20:19:34;0.90;99.90
62555;DHT22;48610;52.144;8.624;2023-01-20T20:22:35;1.00;99.90
62555;DHT22;48610;52.144;8.624;2023-01-20T20:25:35;0.90;99.90
62555;DHT22;48610;52.144;8.624;2023-01-20T20:28:37;0.80;99.90
62555;DHT22;48610;52.144;8.624;2023-01-20T20:31:38;0.90;99.90
62555;DHT22;48610;52.144;8.624;2023-01-20T20:34:39;0.80;99.90
62555;DHT22;48610;52.144;8.624;2023-01-20T20:37:39;0.80;99.90
62555;DHT22;48610;52.144;8.624;2023-01-20T20:40:41;0.80;99.90
62555;DHT22;48610;52.144;8.624;2023-01-20T20:43:42;0.90;99.90
62555;DHT22;48610;52.144;8.624;2023-01-20T20:46:42;0.90;99.90
62555;DHT22;48610;52.144;8.624;2023-01-20T20:49:43;0.80;99.90
62555;DHT22;48610;52.144;8.624;2023-01-20T20:52:43;1.00;99.90
62555;DHT22;48610;52.144;8.624;2023-01-20T20:55:45;1.20;99.90
62555;DHT22;48610;52.144;8.624;2023-01-20T20:58:46;1.10;99.90
62555;DHT22;48610;52.144;8.624;2023-01-20T21:01:47;1.10;99.90
62555;DHT22;48610;52.144;8.624;2023-01-20T21:04:47;1.00;99.90
62555;DHT22;48610;52.144;8.624;2023-01-20T21:07:48;0.70;99.90
62555;DHT22;48610;52.144;8.624;2023-01-20T21:10:48;0.70;99.90